Time;durP1;ratioP1;P1;durP2;ratioP2;P2;SDS_P1;SDS_P2;PMS_P1;PMS_P2;Temp;Humidity;BMP_temperature;BMP_pressure;BME280_temperature;BME280_humidity;BME280_pressure;Samples;Min_cycle;Max_cycle;Signal;HPM_P1;HPM_P2
2023/05/13 07:23:32;;;;;;;4.90;4.47;;;22.20;1.00;;;;;;6118399;23;20154;-76
2023/05/13 07:26:17;;;;;;;4.65;4.13;;;21.30;1.00;;;;;;6115276;23;20149;-76
2023/05/13 07:28:57;;;;;;;5.05;4.55;;;19.80;1.00;;;;;;6116900;23;20167;-77
2023/05/13 07:31:27;;;;;;;8.30;4.40;;;19.60;1.00;;;;;;6116782;23;20167;-80
2023/05/13 07:33:53;;;;;;;5.22;4.28;;;19.90;1.00;;;;;;6092053;23;20180;-77
2023/05/13 07:36:26;;;;;;;5.82;4.43;;;18.70;1.00;;;;;;6118415;23;20172;-77
2023/05/13 07:38:58;;;;;;;6.90;4.55;;;19.50;1.00;;;;;;6094745;23;20203;-77
2023/05/13 07:41:38;;;;;;;8.40;4.60;;;18.40;1.00;;;;;;6093759;23;20157;-76
2023/05/13 07:44:04;;;;;;;6.57;4.40;;;18.50;1.00;;;;;;6119273;23;20140;-77
2023/05/13 07:46:32;;;;;;;8.93;4.32;;;18.50;1.00;;;;;;6094089;23;20515;-77
2023/05/13 07:48:58;;;;;;;6.80;4.45;;;18.70;1.00;;;;;;6119835;23;20141;-76
2023/05/13 07:51:23;;;;;;;5.30;4.35;;;19.60;1.00;;;;;;6093362;23;20603;-76
2023/05/13 07:53:50;;;;;;;5.13;4.65;;;19.30;1.00;;;;;;6119960;23;20144;-76
2023/05/13 07:56:16;;;;;;;5.65;4.85;;;19.20;1.00;;;;;;6119480;23;20263;-76
2023/05/13 07:58:45;;;;;;;8.73;4.45;;;19.40;1.00;;;;;;6120715;23;20204;-75
2023/05/13 08:01:13;;;;;;;5.88;4.63;;;19.10;1.00;;;;;;6119979;23;20207;-77
2023/05/13 08:03:40;;;;;;;5.10;4.60;;;18.70;1.00;;;;;;6094319;23;20162;-77
2023/05/13 08:06:06;;;;;;;5.55;4.72;;;19.70;1.00;;;;;;6119955;23;20172;-78
2023/05/13 08:08:32;;;;;;;5.82;5.03;;;19.80;1.00;;;;;;6120750;23;20195;-77
2023/05/13 08:10:57;;;;;;;6.07;4.82;;;19.80;1.00;;;;;;6119445;23;20144;-75
2023/05/13 08:13:24;;;;;;;6.47;5.15;;;20.30;1.00;;;;;;6119329;23;20615;-77
2023/05/13 08:15:51;;;;;;;6.88;5.20;;;20.20;1.00;;;;;;6119004;23;20198;-75
2023/05/13 08:18:17;;;;;;;5.35;4.82;;;19.60;1.00;;;;;;6118772;23;20199;-77
2023/05/13 08:20:42;;;;;;;6.68;5.28;;;19.40;1.00;;;;;;6092439;23;20157;-78
2023/05/13 08:23:08;;;;;;;5.70;4.90;;;19.20;1.00;;;;;;6119217;23;20148;-76
2023/05/13 08:25:33;;;;;;;4.60;4.20;;;19.30;1.00;;;;;;6119097;23;20163;-78
2023/05/13 08:28:00;;;;;;;6.72;5.38;;;19.50;1.00;;;;;;6118607;23;20176;-74
2023/05/13 08:30:26;;;;;;;5.90;5.30;;;19.60;1.00;;;;;;6119348;23;20178;-74
2023/05/13 08:32:51;;;;;;;7.85;5.32;;;19.20;1.00;;;;;;6118752;23;20251;-76
2023/05/13 08:35:17;;;;;;;8.95;5.70;;;19.20;1.00;;;;;;6093281;23;20149;-76
2023/05/13 08:37:43;;;;;;;6.68;5.45;;;19.00;1.00;;;;;;6118532;23;20251;-75
2023/05/13 08:40:10;;;;;;;6.60;4.95;;;19.00;1.00;;;;;;6119264;23;20148;-74
2023/05/13 08:42:38;;;;;;;5.50;4.97;;;18.90;1.00;;;;;;6118207;23;20287;-74
2023/05/13 08:45:07;;;;;;;8.52;5.72;;;19.00;1.00;;;;;;6119214;23;20147;-74
2023/05/13 08:47:50;;;;;;;5.38;4.88;;;18.80;1.00;;;;;;6118678;23;20180;-74
2023/05/13 09:10:01;;;;;;;6.13;3.78;;;19.20;1.00;;;;;;6125617;23;20211;-78
2023/05/13 09:12:48;;;;;;;4.93;4.15;;;19.70;1.00;;;;;;6118348;23;20589;-76
2023/05/13 09:15:16;;;;;;;5.68;4.10;;;19.30;1.00;;;;;;6118746;23;20144;-79
2023/05/13 09:17:47;;;;;;;5.82;4.90;;;19.30;1.00;;;;;;6117964;23;20238;-78
2023/05/13 09:20:15;;;;;;;4.95;4.45;;;19.70;1.00;;;;;;6118997;23;20141;-77
2023/05/13 09:22:48;;;;;;;6.03;4.50;;;19.20;1.00;;;;;;6091630;23;20160;-78
2023/05/13 09:25:15;;;;;;;6.88;5.13;;;19.30;1.00;;;;;;6118245;23;20149;-80
2023/05/13 09:27:43;;;;;;;6.40;4.65;;;19.40;1.00;;;;;;6117217;23;20184;-76
2023/05/13 09:30:10;;;;;;;10.40;4.80;;;19.30;1.00;;;;;;6092560;23;20493;-78
2023/05/13 09:32:36;;;;;;;6.93;4.88;;;19.60;1.00;;;;;;6118334;23;20164;-80
2023/05/13 09:35:16;;;;;;;8.13;4.10;;;19.50;1.00;;;;;;6118575;23;20235;-79
2023/05/13 09:37:46;;;;;;;4.57;3.92;;;19.50;1.00;;;;;;6091944;23;20192;-78
2023/05/13 09:40:13;;;;;;;7.60;3.92;;;19.40;1.00;;;;;;6118583;23;20140;-78
2023/05/13 09:42:42;;;;;;;4.30;3.90;;;19.60;1.00;;;;;;6117598;23;20518;-76
2023/05/13 09:45:08;;;;;;;6.75;3.85;;;19.70;1.00;;;;;;6118838;23;20145;-78
2023/05/13 09:47:35;;;;;;;5.82;4.00;;;19.80;1.00;;;;;;6091810;23;20188;-78
2023/05/13 09:50:02;;;;;;;4.55;3.40;;;19.90;1.00;;;;;;6116630;23;20202;-78
2023/05/13 09:52:31;;;;;;;5.03;3.08;;;19.90;1.00;;;;;;6115333;23;20152;-75
2023/05/13 09:54:58;;;;;;;5.40;3.15;;;20.00;1.00;;;;;;6116982;23;20228;-80
2023/05/13 09:57:26;;;;;;;5.47;3.05;;;20.20;1.00;;;;;;6091724;23;20269;-78
2023/05/13 09:59:56;;;;;;;5.60;3.40;;;20.20;1.00;;;;;;6117726;23;20254;-77
2023/05/13 10:02:23;;;;;;;3.53;3.05;;;20.30;1.00;;;;;;6117711;23;20168;-79
2023/05/13 10:04:50;;;;;;;4.22;3.50;;;20.30;1.00;;;;;;6118357;23;20240;-78
2023/05/13 10:07:16;;;;;;;5.32;3.13;;;20.30;1.00;;;;;;6117827;23;20491;-79
2023/05/13 10:09:44;;;;;;;3.33;3.03;;;20.30;1.00;;;;;;6118047;23;20178;-78
2023/05/13 10:12:13;;;;;;;4.78;3.30;;;20.50;1.00;;;;;;6116994;23;20140;-79
2023/05/13 10:14:40;;;;;;;5.45;3.38;;;20.60;1.00;;;;;;6118216;23;20149;-78
2023/05/13 10:17:08;;;;;;;4.95;3.42;;;20.50;1.00;;;;;;6118045;23;20277;-76
2023/05/13 10:19:34;;;;;;;5.63;3.47;;;20.30;1.00;;;;;;6117445;23;20164;-80
2023/05/13 10:22:01;;;;;;;4.30;3.80;;;20.30;1.00;;;;;;6116741;23;20883;-79
2023/05/13 10:24:27;;;;;;;4.85;3.75;;;20.40;1.00;;;;;;6118405;23;20140;-78
2023/05/13 10:26:54;;;;;;;6.03;3.10;;;20.50;1.00;;;;;;6117796;23;20179;-79
2023/05/13 10:29:22;;;;;;;3.83;3.53;;;20.60;1.00;;;;;;6118205;23;20153;-77
2023/05/13 10:31:49;;;;;;;3.85;2.78;;;20.60;1.00;;;;;;6117509;23;20573;-78
2023/05/13 10:34:15;;;;;;;6.25;3.20;;;20.50;1.00;;;;;;6118147;23;20151;-76
2023/05/13 10:36:52;;;;;;;4.88;3.28;;;20.40;1.00;;;;;;6091876;23;20727;-75
2023/05/13 10:40:00;;;;;;;4.40;3.38;;;20.40;1.00;;;;;;6117891;23;20175;-74
2023/05/13 10:42:36;;;;;;;3.17;2.80;;;20.50;1.00;;;;;;6116938;23;20144;-75
2023/05/13 10:45:02;;;;;;;4.72;3.08;;;20.70;1.00;;;;;;6117451;23;20215;-76
2023/05/13 10:47:31;;;;;;;3.35;2.92;;;20.90;1.00;;;;;;6091373;23;20292;-77
2023/05/13 10:49:57;;;;;;;5.15;3.00;;;21.00;1.00;;;;;;6117512;23;20231;-75
2023/05/13 10:52:39;;;;;;;6.03;3.03;;;21.10;1.00;;;;;;6085867;23;20176;-73
2023/05/13 10:55:15;;;;;;;5.65;2.72;;;21.30;1.00;;;;;;6116307;23;20203;-73
2023/05/13 10:57:40;;;;;;;5.40;2.97;;;21.50;1.00;;;;;;6116707;23;20936;-75
2023/05/13 11:22:22;;;;;;;2.78;2.58;;;21.10;1.00;;;;;;6147237;23;20172;-74
2023/05/13 11:25:09;;;;;;;3.10;2.22;;;21.40;1.00;;;;;;6148997;23;20450;-76
2023/05/13 11:27:39;;;;;;;8.00;3.08;;;21.30;1.00;;;;;;6125112;23;20223;-77
2023/05/13 11:30:07;;;;;;;3.70;2.60;;;21.30;1.00;;;;;;6119234;23;20149;-75
2023/05/13 11:32:52;;;;;;;3.45;2.30;;;21.50;1.00;;;;;;6117511;23;20474;-76
2023/05/13 11:35:25;;;;;;;2.97;2.40;;;21.40;1.00;;;;;;6119395;23;20144;-76
2023/05/13 11:37:50;;;;;;;4.72;2.50;;;21.50;1.00;;;;;;6118465;23;20598;-77
2023/05/13 11:40:27;;;;;;;6.35;2.47;;;21.60;1.00;;;;;;6119224;23;20136;-76
2023/05/13 11:42:53;;;;;;;3.28;2.45;;;21.50;1.00;;;;;;6091253;23;20152;-74
2023/05/13 11:45:20;;;;;;;6.25;2.20;;;21.30;1.00;;;;;;6118806;23;20471;-74
2023/05/13 11:47:46;;;;;;;3.35;2.10;;;21.10;1.00;;;;;;6119030;23;20239;-74
2023/05/13 11:50:26;;;;;;;4.63;2.25;;;20.80;1.00;;;;;;6118658;23;20583;-75
2023/05/13 11:52:56;;;;;;;2.85;2.17;;;20.80;1.00;;;;;;6117283;23;20441;-75
2023/05/13 11:55:30;;;;;;;2.78;2.22;;;20.90;1.00;;;;;;6118552;23;20207;-77
2023/05/13 11:57:57;;;;;;;5.07;2.13;;;20.90;1.00;;;;;;6118300;23;20630;-77
2023/05/13 12:00:28;;;;;;;2.30;2.10;;;20.90;1.00;;;;;;6093344;23;20149;-75
2023/05/13 12:02:54;;;;;;;3.28;1.77;;;21.10;1.00;;;;;;6117804;23;20223;-76
2023/05/13 12:05:20;;;;;;;3.55;2.20;;;21.30;1.00;;;;;;6118925;23;20558;-74
2023/05/13 12:07:46;;;;;;;3.13;2.03;;;21.40;1.00;;;;;;6118290;23;20183;-78
2023/05/13 12:10:12;;;;;;;4.65;2.53;;;21.40;1.00;;;;;;6118684;23;20449;-77
2023/05/13 12:12:42;;;;;;;6.38;2.40;;;21.60;1.00;;;;;;6118184;23;20156;-77
2023/05/13 12:15:11;;;;;;;5.60;2.10;;;21.60;1.00;;;;;;6119128;23;20145;-74
2023/05/13 12:17:37;;;;;;;3.70;1.83;;;21.50;1.00;;;;;;6092495;23;20192;-75
2023/05/13 12:20:15;;;;;;;4.50;2.00;;;21.40;1.00;;;;;;6118260;23;20155;-74
2023/05/13 12:22:44;;;;;;;2.78;1.95;;;20.80;1.00;;;;;;6117434;23;20151;-75
2023/05/13 12:25:31;;;;;;;2.97;2.00;;;20.70;1.00;;;;;;6118776;23;20161;-77
2023/05/13 12:27:58;;;;;;;3.50;1.98;;;20.60;1.00;;;;;;6118581;23;20184;-75
2023/05/13 12:30:24;;;;;;;3.78;1.90;;;20.70;1.00;;;;;;6118496;23;20195;-77
2023/05/13 12:32:50;;;;;;;4.38;2.30;;;20.80;1.00;;;;;;6117419;23;20148;-73
2023/05/13 12:35:16;;;;;;;3.20;1.90;;;21.00;1.00;;;;;;6119055;23;20215;-76
2023/05/13 12:37:41;;;;;;;3.80;1.95;;;21.10;1.00;;;;;;6117981;23;20184;-76
2023/05/13 12:40:13;;;;;;;1.73;1.63;;;21.40;1.00;;;;;;6118792;23;20155;-76
2023/05/13 12:42:48;;;;;;;3.40;1.85;;;21.60;1.00;;;;;;6117165;23;21069;-75
2023/05/13 12:45:14;;;;;;;4.63;2.10;;;21.50;1.00;;;;;;6118544;23;20144;-74
2023/05/13 12:47:50;;;;;;;4.05;2.10;;;21.60;1.00;;;;;;6117685;23;20187;-77
2023/05/13 12:50:15;;;;;;;3.20;1.85;;;21.90;1.00;;;;;;6092538;23;20555;-77
2023/05/13 12:52:41;;;;;;;4.90;1.90;;;22.10;1.00;;;;;;6116858;23;20207;-75
2023/05/13 12:55:07;;;;;;;3.45;2.00;;;22.10;1.00;;;;;;6118572;23;20159;-77
2023/05/13 12:57:33;;;;;;;3.85;2.03;;;22.10;1.00;;;;;;6091791;23;20214;-76
2023/05/13 12:59:58;;;;;;;3.22;1.75;;;22.00;1.00;;;;;;6118017;23;20141;-77
2023/05/13 13:02:24;;;;;;;3.15;2.13;;;21.90;1.00;;;;;;6118469;23;20156;-78
2023/05/13 13:04:50;;;;;;;2.47;1.60;;;21.90;1.00;;;;;;6119097;23;20144;-78
2023/05/13 13:07:15;;;;;;;4.60;2.13;;;22.00;1.00;;;;;;6092723;23;20175;-77
2023/05/13 13:09:41;;;;;;;2.03;1.80;;;21.80;1.00;;;;;;6118545;23;20149;-76
2023/05/13 13:12:06;;;;;;;2.10;1.90;;;21.80;1.00;;;;;;6118324;23;20172;-76
2023/05/13 13:14:32;;;;;;;2.03;1.83;;;21.80;1.00;;;;;;6118588;23;20600;-74
2023/05/13 13:16:58;;;;;;;4.13;1.80;;;22.00;1.00;;;;;;6117881;23;20219;-89
2023/05/13 13:19:23;;;;;;;2.30;2.00;;;22.20;1.00;;;;;;6093570;23;20200;-90
2023/05/13 13:21:49;;;;;;;2.45;1.80;;;22.90;1.00;;;;;;6096770;23;20176;-90
2023/05/13 13:24:14;;;;;;;3.70;1.98;;;21.90;1.00;;;;;;6097119;23;20248;-90
2023/05/13 13:26:40;;;;;;;2.75;1.85;;;21.90;1.00;;;;;;6096480;23;20587;-90
2023/05/13 13:29:05;;;;;;;1.83;1.65;;;22.00;1.00;;;;;;6095727;23;20180;-89
2023/05/13 13:31:31;;;;;;;3.78;1.90;;;22.10;1.00;;;;;;6093924;23;20164;-89
2023/05/13 13:34:02;;;;;;;6.18;1.90;;;22.50;1.00;;;;;;6094950;23;20156;-91
2023/05/13 13:36:28;;;;;;;2.40;1.92;;;21.80;1.00;;;;;;6091392;23;20565;-87
2023/05/13 13:38:54;;;;;;;2.17;1.80;;;22.00;1.00;;;;;;6092792;23;20254;-88
2023/05/13 13:41:24;;;;;;;2.75;1.83;;;21.70;1.00;;;;;;6091244;23;20571;-89
2023/05/13 13:43:50;;;;;;;4.28;1.92;;;21.70;1.00;;;;;;6091530;23;20531;-89
2023/05/13 13:46:16;;;;;;;1.80;1.70;;;21.80;1.00;;;;;;6094639;23;20223;-89
2023/05/13 13:48:41;;;;;;;5.55;2.17;;;22.50;1.00;;;;;;6094831;23;20184;-89
2023/05/13 13:51:07;;;;;;;4.65;1.85;;;22.10;1.00;;;;;;6094267;23;20199;-88
2023/05/13 13:53:32;;;;;;;6.00;1.80;;;22.10;1.00;;;;;;6092483;23;20160;-88
2023/05/13 13:55:58;;;;;;;3.40;1.90;;;22.20;1.00;;;;;;6090692;23;20160;-89
2023/05/13 13:58:24;;;;;;;4.90;2.00;;;22.40;1.00;;;;;;6090807;23;20204;-90
2023/05/13 14:00:49;;;;;;;5.43;2.20;;;22.60;1.00;;;;;;6093937;23;20683;-89
2023/05/13 14:03:15;;;;;;;3.35;2.08;;;22.50;1.00;;;;;;6092700;23;20167;-92
2023/05/13 14:05:41;;;;;;;2.30;2.10;;;22.80;1.00;;;;;;6094053;23;20175;-89
2023/05/13 14:08:06;;;;;;;4.55;2.22;;;22.70;1.00;;;;;;6092816;23;20188;-89
2023/05/13 14:10:32;;;;;;;4.47;2.38;;;22.60;1.00;;;;;;6093943;23;20171;-90
2023/05/13 14:12:57;;;;;;;2.50;2.17;;;22.70;1.00;;;;;;6093945;23;20184;-89
2023/05/13 14:15:27;;;;;;;2.50;2.28;;;23.10;1.00;;;;;;6095305;23;20218;-89
2023/05/13 14:17:53;;;;;;;2.50;2.30;;;22.50;1.00;;;;;;6094936;23;20242;-89
2023/05/13 14:20:20;;;;;;;5.35;2.30;;;22.30;1.00;;;;;;6096042;23;20247;-91
2023/05/13 14:22:46;;;;;;;4.75;2.35;;;22.60;1.00;;;;;;6095660;23;20259;-89
2023/05/13 14:25:12;;;;;;;3.88;2.30;;;22.50;1.00;;;;;;6094895;23;20597;-89
2023/05/13 14:27:38;;;;;;;2.80;2.60;;;22.30;1.00;;;;;;6093089;23;20214;-89
2023/05/13 14:30:06;;;;;;;3.00;2.47;;;22.10;1.00;;;;;;6093093;23;20164;-89
2023/05/13 14:32:32;;;;;;;4.85;2.10;;;22.00;1.00;;;;;;6093165;23;20157;-89
2023/05/13 14:34:58;;;;;;;7.90;2.20;;;22.40;1.00;;;;;;6091050;23;20219;-89
2023/05/13 14:37:24;;;;;;;2.75;2.10;;;22.20;1.00;;;;;;6119367;23;20678;-89
2023/05/13 14:39:49;;;;;;;3.08;2.17;;;22.20;1.00;;;;;;6094649;23;20237;-91
2023/05/13 14:42:15;;;;;;;3.47;2.25;;;22.40;1.00;;;;;;6095452;23;20160;-91
2023/05/13 14:44:41;;;;;;;2.80;2.30;;;22.60;1.00;;;;;;6094107;23;20159;-93
2023/05/13 14:47:07;;;;;;;4.30;2.60;;;22.70;1.00;;;;;;6100750;23;20160;-91
2023/05/13 14:49:32;;;;;;;3.55;2.25;;;23.20;1.00;;;;;;6095599;23;20184;-91
2023/05/13 14:51:58;;;;;;;3.17;2.30;;;22.60;1.00;;;;;;6094716;23;20171;-90
2023/05/13 14:54:24;;;;;;;7.60;2.72;;;22.60;1.00;;;;;;6094726;23;20255;-91
2023/05/13 14:56:50;;;;;;;3.15;2.35;;;22.60;1.00;;;;;;6095461;23;20160;-90
2023/05/13 14:59:16;;;;;;;2.40;2.20;;;23.30;1.00;;;;;;6094429;23;20196;-89
2023/05/13 15:01:42;;;;;;;4.28;2.35;;;22.80;1.00;;;;;;6095616;23;20175;-91
2023/05/13 15:04:07;;;;;;;3.45;2.10;;;22.50;1.00;;;;;;6094553;23;20156;-90
2023/05/13 15:06:55;;;;;;;4.43;2.38;;;22.70;1.00;;;;;;6095741;23;20213;-90
2023/05/13 15:09:20;;;;;;;2.70;2.50;;;22.40;1.00;;;;;;6093078;23;20194;-90
2023/05/13 15:11:46;;;;;;;3.53;2.60;;;22.50;1.00;;;;;;6092704;23;20168;-90
2023/05/13 15:14:12;;;;;;;4.72;2.42;;;22.30;1.00;;;;;;6097283;23;20164;-87
2023/05/13 15:16:38;;;;;;;4.45;2.47;;;22.40;1.00;;;;;;6097221;23;20160;-89
2023/05/13 15:19:05;;;;;;;3.60;2.30;;;22.70;1.00;;;;;;6094890;23;20308;-89
2023/05/13 15:21:31;;;;;;;4.25;2.53;;;22.40;1.00;;;;;;6098037;23;20218;-90
2023/05/13 15:23:56;;;;;;;4.40;2.40;;;22.60;1.00;;;;;;6097242;23;20624;-89
2023/05/13 15:26:22;;;;;;;4.30;2.30;;;22.40;1.00;;;;;;6096120;23;20247;-89
2023/05/13 15:28:47;;;;;;;2.83;2.53;;;22.10;1.00;;;;;;6095916;23;20231;-89
2023/05/13 15:31:13;;;;;;;5.75;2.60;;;22.10;1.00;;;;;;6093739;23;20164;-89
2023/05/13 15:33:38;;;;;;;6.32;2.40;;;22.00;1.00;;;;;;6089149;23;20183;-89
2023/05/13 15:36:05;;;;;;;3.60;2.10;;;22.10;1.00;;;;;;6089232;23;20160;-89
2023/05/13 15:38:31;;;;;;;2.95;2.40;;;22.10;1.00;;;;;;6089165;23;20270;-89
2023/05/13 15:40:56;;;;;;;2.47;2.28;;;22.20;1.00;;;;;;6091741;23;20165;-90
2023/05/13 15:43:22;;;;;;;3.58;2.42;;;22.10;1.00;;;;;;6094483;23;20267;-90
2023/05/13 15:45:48;;;;;;;3.58;2.13;;;22.00;1.00;;;;;;6096252;23;20219;-89
2023/05/13 15:48:15;;;;;;;4.22;2.50;;;22.20;1.00;;;;;;6096039;23;20193;-89
2023/05/13 15:50:41;;;;;;;7.95;2.83;;;22.00;1.00;;;;;;6092111;23;20172;-88
2023/05/13 15:53:06;;;;;;;2.83;2.25;;;22.10;1.00;;;;;;6091205;23;20652;-90
2023/05/13 15:55:32;;;;;;;4.72;2.60;;;22.30;1.00;;;;;;6091264;23;20164;-89
2023/05/13 15:57:58;;;;;;;4.28;2.40;;;22.60;1.00;;;;;;6067886;23;20284;-88
2023/05/13 16:00:24;;;;;;;3.58;2.45;;;22.40;1.00;;;;;;6092387;23;20195;-88
2023/05/13 16:02:50;;;;;;;4.10;2.25;;;22.20;1.00;;;;;;6091417;23;20160;-87
2023/05/13 16:05:18;;;;;;;2.47;2.10;;;22.20;1.00;;;;;;6117368;23;20893;-88
2023/05/13 16:07:44;;;;;;;4.45;2.70;;;22.20;1.00;;;;;;6117656;23;20160;-88
2023/05/13 16:10:10;;;;;;;2.58;2.38;;;22.40;1.00;;;;;;6090989;23;20164;-87
2023/05/13 16:12:36;;;;;;;4.30;2.35;;;21.70;1.00;;;;;;6092230;23;20161;-88
2023/05/13 16:15:02;;;;;;;2.88;2.10;;;21.50;1.00;;;;;;6091771;23;20604;-88
2023/05/13 16:17:28;;;;;;;2.38;2.00;;;21.40;1.00;;;;;;6091543;23;20323;-88
2023/05/13 16:19:53;;;;;;;3.85;2.60;;;21.10;1.00;;;;;;6091881;23;20628;-88
2023/05/13 16:22:32;;;;;;;3.80;2.55;;;20.90;1.00;;;;;;6107561;23;20662;-78
2023/05/13 16:25:10;;;;;;;2.40;2.20;;;20.60;1.00;;;;;;6143051;23;20482;-87
2023/05/13 16:27:37;;;;;;;3.88;2.63;;;20.40;1.00;;;;;;6121317;23;20470;-89
2023/05/13 16:30:05;;;;;;;3.00;2.25;;;20.70;1.00;;;;;;6115187;23;20211;-88
2023/05/13 16:32:32;;;;;;;3.75;2.33;;;20.10;1.00;;;;;;6115176;23;20167;-88
2023/05/13 16:34:57;;;;;;;2.35;2.15;;;20.10;1.00;;;;;;6117078;23;20211;-87
2023/05/13 16:37:23;;;;;;;2.70;2.50;;;20.40;1.00;;;;;;6141458;23;20604;-88
2023/05/13 16:39:49;;;;;;;3.60;2.30;;;20.40;1.00;;;;;;6145453;23;20186;-87
2023/05/13 16:42:15;;;;;;;3.20;2.40;;;20.40;1.00;;;;;;6118443;23;20167;-88
2023/05/13 16:44:40;;;;;;;4.32;2.35;;;20.50;1.00;;;;;;6145587;23;20206;-87
2023/05/13 16:47:09;;;;;;;3.35;2.60;;;20.60;1.00;;;;;;6120819;23;20511;-88
2023/05/13 16:49:35;;;;;;;3.13;2.60;;;20.50;1.00;;;;;;6146029;23;20179;-88
2023/05/13 16:52:02;;;;;;;3.40;2.22;;;20.40;1.00;;;;;;6120170;23;20166;-88
2023/05/13 16:54:28;;;;;;;2.83;2.33;;;23.30;1.00;;;;;;6119612;23;20168;-87
2023/05/13 16:56:54;;;;;;;3.92;2.47;;;20.30;1.00;;;;;;6119512;23;20497;-88
2023/05/13 16:59:21;;;;;;;3.85;2.70;;;20.20;1.00;;;;;;6145705;23;20582;-86
2023/05/13 17:01:47;;;;;;;3.83;2.55;;;20.20;1.00;;;;;;6119542;23;20198;-89
2023/05/13 17:04:13;;;;;;;4.13;2.30;;;20.10;1.00;;;;;;6120211;23;20710;-87
2023/05/13 17:06:39;;;;;;;3.40;2.40;;;20.10;1.00;;;;;;6119480;23;20179;-86
2023/05/13 17:09:05;;;;;;;3.35;2.40;;;20.00;1.00;;;;;;6148517;23;20225;-91
2023/05/13 17:11:31;;;;;;;2.60;2.35;;;20.10;1.00;;;;;;6122279;23;20167;-90
2023/05/13 17:13:57;;;;;;;3.42;2.42;;;19.90;1.00;;;;;;6123955;23;20501;-91
2023/05/13 17:16:23;;;;;;;2.50;2.28;;;19.70;1.00;;;;;;6149778;23;20174;-86
2023/05/13 17:18:49;;;;;;;4.20;2.50;;;19.60;1.00;;;;;;6121784;23;20195;-88
2023/05/13 17:21:15;;;;;;;3.05;2.65;;;19.60;1.00;;;;;;6122383;23;20167;-88
2023/05/13 17:23:41;;;;;;;2.53;2.10;;;19.60;1.00;;;;;;6121952;23;20651;-86
2023/05/13 17:26:07;;;;;;;5.68;2.85;;;19.50;1.00;;;;;;6122563;23;20167;-87
2023/05/13 17:28:33;;;;;;;2.45;2.10;;;19.50;1.00;;;;;;6122465;23;20315;-88
2023/05/13 17:31:03;;;;;;;3.88;2.10;;;19.90;1.00;;;;;;6148192;23;20191;-85
2023/05/13 17:33:29;;;;;;;3.63;2.30;;;19.30;1.00;;;;;;6122099;23;20171;-87
2023/05/13 17:35:54;;;;;;;2.58;2.20;;;19.30;1.00;;;;;;6148097;23;20160;-85
2023/05/13 17:38:20;;;;;;;5.57;2.53;;;19.20;1.00;;;;;;6121980;23;20499;-87
2023/05/13 17:40:46;;;;;;;3.30;2.45;;;19.30;1.00;;;;;;6122271;23;20174;-87
2023/05/13 17:43:11;;;;;;;3.05;2.22;;;19.00;1.00;;;;;;6121728;23;20206;-87
2023/05/13 17:45:37;;;;;;;3.75;2.40;;;19.40;1.00;;;;;;6121946;23;20164;-86
2023/05/13 17:48:03;;;;;;;5.05;2.42;;;18.90;1.00;;;;;;6148339;23;20214;-87
2023/05/13 17:50:30;;;;;;;3.03;2.20;;;18.80;1.00;;;;;;6121891;23;20163;-87
2023/05/13 17:52:55;;;;;;;2.88;2.50;;;18.70;1.00;;;;;;6121833;23;20168;-85
2023/05/13 17:55:21;;;;;;;3.05;2.40;;;19.20;1.00;;;;;;6121384;23;20168;-88
2023/05/13 17:57:47;;;;;;;3.05;2.50;;;18.60;1.00;;;;;;6121244;23;20187;-87
2023/05/13 18:00:13;;;;;;;2.60;2.40;;;18.30;1.00;;;;;;6121759;23;20160;-88
2023/05/13 18:02:39;;;;;;;2.65;2.25;;;18.30;1.00;;;;;;6121741;23;20191;-88
2023/05/13 18:05:08;;;;;;;3.25;2.47;;;18.20;1.00;;;;;;6148027;23;20159;-89
2023/05/13 18:07:34;;;;;;;3.17;2.38;;;18.00;1.00;;;;;;6119436;23;20587;-87
2023/05/13 18:10:00;;;;;;;3.85;2.50;;;17.90;1.00;;;;;;6119372;23;20191;-87
2023/05/13 18:12:26;;;;;;;2.75;2.20;;;18.00;1.00;;;;;;6119508;23;20164;-87
2023/05/13 18:14:52;;;;;;;2.90;2.67;;;;;;;;;;6119334;23;20171;-88
2023/05/13 18:17:18;;;;;;;3.92;2.60;;;17.80;1.00;;;;;;6120092;23;20724;-87
2023/05/13 18:19:44;;;;;;;3.10;2.40;;;17.60;1.00;;;;;;6145951;23;20612;-88
2023/05/13 18:22:10;;;;;;;2.95;2.47;;;18.20;1.00;;;;;;6118707;23;20242;-87
2023/05/13 18:24:39;;;;;;;3.25;2.63;;;18.00;1.00;;;;;;6120714;23;20167;-88
2023/05/13 18:27:08;;;;;;;3.75;2.83;;;17.30;1.00;;;;;;6147726;23;20156;-88
2023/05/13 18:29:34;;;;;;;2.90;2.63;;;17.30;1.00;;;;;;6145187;23;20186;-89
2023/05/13 18:32:00;;;;;;;3.72;2.78;;;17.40;1.00;;;;;;6117913;23;20512;-86
2023/05/13 18:34:29;;;;;;;2.72;2.53;;;17.90;1.00;;;;;;6119346;23;20179;-88
2023/05/13 18:36:55;;;;;;;4.07;2.65;;;17.10;1.00;;;;;;6121441;23;20287;-88
2023/05/13 18:39:20;;;;;;;4.85;3.03;;;16.90;1.00;;;;;;6145267;23;20215;-88
2023/05/13 18:41:46;;;;;;;4.13;3.20;;;16.90;1.00;;;;;;6118690;23;20543;-88
2023/05/13 18:44:12;;;;;;;3.47;2.90;;;18.00;1.00;;;;;;6144257;23;20156;-88
2023/05/13 18:46:38;;;;;;;3.05;2.75;;;16.80;1.00;;;;;;6118777;23;20238;-89
2023/05/13 18:49:03;;;;;;;3.40;2.42;;;16.80;1.00;;;;;;6119078;23;20655;-87
2023/05/13 18:51:32;;;;;;;4.38;2.53;;;16.50;1.00;;;;;;6117395;23;20614;-89
2023/05/13 18:54:05;;;;;;;4.97;2.70;;;16.50;1.00;;;;;;6119026;23;20164;-89
2023/05/13 18:56:32;;;;;;;3.50;2.65;;;16.30;1.00;;;;;;6118946;23;20152;-89
2023/05/13 18:58:58;;;;;;;4.53;2.97;;;16.00;1.00;;;;;;6144213;23;20243;-88
2023/05/13 19:01:24;;;;;;;4.05;3.00;;;15.70;1.00;;;;;;6144724;23;20190;-88
2023/05/13 19:03:50;;;;;;;3.25;2.80;;;16.00;1.00;;;;;;6118246;23;20211;-89
2023/05/13 19:06:16;;;;;;;3.20;2.95;;;15.40;1.00;;;;;;6118695;23;20167;-89
2023/05/13 19:08:42;;;;;;;3.65;2.90;;;15.70;1.00;;;;;;6118939;23;20183;-88
2023/05/13 19:11:07;;;;;;;3.20;2.90;;;15.00;1.00;;;;;;6119052;23;20210;-89
2023/05/13 19:13:34;;;;;;;3.15;2.85;;;15.80;1.00;;;;;;6118922;23;20159;-88
2023/05/13 19:15:59;;;;;;;4.22;3.83;;;15.60;1.00;;;;;;6118663;23;20253;-88
2023/05/13 19:18:28;;;;;;;4.45;3.58;;;15.50;1.00;;;;;;6118789;23;20195;-89
2023/05/13 19:20:53;;;;;;;4.40;3.65;;;14.80;1.00;;;;;;6145818;23;20239;-88
2023/05/13 19:23:19;;;;;;;4.97;3.50;;;14.70;1.00;;;;;;6121415;23;20196;-87
2023/05/13 19:25:45;;;;;;;4.00;3.60;;;15.00;1.00;;;;;;6121436;23;20160;-88
2023/05/13 19:28:11;;;;;;;3.83;3.53;;;15.40;1.00;;;;;;6121116;23;20187;-87
2023/05/13 19:30:38;;;;;;;4.30;3.90;;;15.10;1.00;;;;;;6118304;23;20194;-87
2023/05/13 19:33:06;;;;;;;5.10;3.83;;;15.00;1.00;;;;;;6144549;23;20182;-91
2023/05/13 19:35:31;;;;;;;3.70;3.40;;;14.40;1.00;;;;;;6120520;23;20716;-89
2023/05/13 19:37:57;;;;;;;4.38;4.07;;;15.50;1.00;;;;;;6120315;23;20207;-89
2023/05/13 19:40:23;;;;;;;5.25;3.97;;;14.60;1.00;;;;;;6120633;23;20162;-88
2023/05/13 19:42:49;;;;;;;4.63;4.03;;;14.20;1.00;;;;;;6119345;23;20464;-90
2023/05/13 19:45:19;;;;;;;4.75;3.80;;;14.10;1.00;;;;;;6118925;23;20383;-90
2023/05/13 19:47:45;;;;;;;5.18;3.85;;;14.30;1.00;;;;;;6120127;23;20282;-88
2023/05/13 19:50:11;;;;;;;3.97;3.55;;;14.10;1.00;;;;;;6119854;23;20198;-88
2023/05/13 19:52:42;;;;;;;4.22;3.85;;;14.10;1.00;;;;;;6121016;23;20247;-88
2023/05/13 19:55:09;;;;;;;3.90;3.60;;;14.60;1.00;;;;;;6120242;23;20155;-90
2023/05/13 19:57:37;;;;;;;4.78;3.90;;;14.10;1.00;;;;;;6120138;23;20160;-89
2023/05/13 20:00:04;;;;;;;4.10;3.80;;;15.00;1.00;;;;;;6120543;23;20159;-87
2023/05/13 20:02:30;;;;;;;4.63;3.85;;;14.00;1.00;;;;;;6119965;23;20160;-86
2023/05/13 20:04:56;;;;;;;4.32;4.00;;;14.00;1.00;;;;;;6119556;23;20156;-85
2023/05/13 20:07:21;;;;;;;4.93;4.07;;;13.90;1.00;;;;;;6119529;23;20167;-89
2023/05/13 20:09:47;;;;;;;4.60;4.20;;;14.60;1.00;;;;;;6119898;23;20182;-88
2023/05/13 20:12:12;;;;;;;5.32;4.88;;;13.90;1.00;;;;;;6120094;23;20167;-87
2023/05/13 20:14:43;;;;;;;6.30;4.60;;;13.90;1.00;;;;;;6145710;23;20166;-87
2023/05/13 20:17:10;;;;;;;4.70;4.30;;;14.20;1.00;;;;;;6124139;23;20191;-91
2023/05/13 20:19:35;;;;;;;5.05;4.65;;;14.10;1.00;;;;;;6149002;23;20215;-88
2023/05/13 20:22:01;;;;;;;5.40;4.90;;;14.90;1.00;;;;;;6119514;23;20170;-86
2023/05/13 20:24:27;;;;;;;7.00;4.68;;;13.60;1.00;;;;;;6146054;23;20693;-88
2023/05/13 20:26:53;;;;;;;6.50;5.15;;;13.90;1.00;;;;;;6145524;23;20187;-88
2023/05/13 20:29:18;;;;;;;6.22;5.63;;;13.50;1.00;;;;;;6120502;23;20229;-88
2023/05/13 20:31:44;;;;;;;6.25;5.60;;;14.70;1.00;;;;;;6119567;23;20148;-89
2023/05/13 20:34:09;;;;;;;5.45;4.95;;;13.70;1.00;;;;;;6120047;23;20251;-88
2023/05/13 20:36:37;;;;;;;7.27;5.77;;;13.30;1.00;;;;;;6146111;23;20391;-87
2023/05/13 20:39:03;;;;;;;5.90;5.40;;;13.30;1.00;;;;;;6121587;23;20438;-89
2023/05/13 20:41:29;;;;;;;5.45;5.03;;;13.20;1.00;;;;;;6119384;23;20159;-88
2023/05/13 20:43:55;;;;;;;5.82;5.22;;;13.10;1.00;;;;;;6122166;23;20242;-89
2023/05/13 20:46:22;;;;;;;5.63;5.13;;;14.30;1.00;;;;;;6119826;23;20163;-88
2023/05/13 20:48:47;;;;;;;6.32;5.63;;;13.10;1.00;;;;;;6119673;23;20699;-89
2023/05/13 20:51:13;;;;;;;5.38;4.95;;;13.00;1.00;;;;;;6123202;23;20195;-89
2023/05/13 20:53:39;;;;;;;6.13;5.50;;;13.00;1.00;;;;;;6123092;23;20163;-89
2023/05/13 20:56:07;;;;;;;6.38;5.78;;;13.30;1.00;;;;;;6121627;23;20159;-88
2023/05/13 20:58:32;;;;;;;8.65;5.45;;;13.70;1.00;;;;;;6121271;23;20663;-88
2023/05/13 21:00:58;;;;;;;6.20;5.60;;;12.90;1.00;;;;;;6145076;23;20163;-88
2023/05/13 21:03:24;;;;;;;5.70;5.20;;;12.80;1.00;;;;;;6119351;23;20218;-88